sensor_id;sensor_type;location;lat;lon;timestamp;pressure;altitude;pressure_sealevel;temperature;humidity
75913;BME280;64592;52.168;21.040;2023-08-21T00:00:00;100690.47;;;24.86;74.20
75913;BME280;64592;52.168;21.040;2023-08-21T00:05:02;100694.63;;;24.75;75.10
75913;BME280;64592;52.168;21.040;2023-08-21T00:10:06;100698.41;;;24.67;75.97
75913;BME280;64592;52.168;21.040;2023-08-21T00:15:09;100691.25;;;24.52;76.84
75913;BME280;64592;52.168;21.040;2023-08-21T00:20:11;100697.28;;;24.41;77.18
75913;BME280;64592;52.168;21.040;2023-08-21T00:25:14;100690.88;;;24.19;78.03
75913;BME280;64592;52.168;21.040;2023-08-21T00:30:16;100688.81;;;24.21;78.39
75913;BME280;64592;52.168;21.040;2023-08-21T00:35:18;100689.94;;;24.26;77.82
75913;BME280;64592;52.168;21.040;2023-08-21T00:40:21;100697.75;;;24.23;77.93
75913;BME280;64592;52.168;21.040;2023-08-21T00:45:22;100706.47;;;24.26;77.92
75913;BME280;64592;52.168;21.040;2023-08-21T00:50:24;100709.50;;;24.17;78.07
75913;BME280;64592;52.168;21.040;2023-08-21T00:55:28;100711.34;;;24.10;78.42
75913;BME280;64592;52.168;21.040;2023-08-21T01:00:30;100709.56;;;24.02;78.89
75913;BME280;64592;52.168;21.040;2023-08-21T01:05:32;100710.06;;;23.91;79.70
75913;BME280;64592;52.168;21.040;2023-08-21T01:10:48;100705.53;;;23.83;79.81
75913;BME280;64592;52.168;21.040;2023-08-21T01:15:54;100697.63;;;23.80;80.04
75913;BME280;64592;52.168;21.040;2023-08-21T01:20:57;100708.41;;;23.75;80.63
75913;BME280;64592;52.168;21.040;2023-08-21T01:26:01;100715.13;;;23.73;81.01
75913;BME280;64592;52.168;21.040;2023-08-21T01:31:07;100721.91;;;23.70;81.18
75913;BME280;64592;52.168;21.040;2023-08-21T01:36:10;100715.81;;;23.60;82.01
75913;BME280;64592;52.168;21.040;2023-08-21T01:41:13;100718.94;;;23.57;82.16
75913;BME280;64592;52.168;21.040;2023-08-21T01:46:15;100716.00;;;23.58;82.40
75913;BME280;64592;52.168;21.040;2023-08-21T01:51:17;100716.59;;;23.54;82.87
75913;BME280;64592;52.168;21.040;2023-08-21T01:56:20;100719.78;;;23.43;83.71
75913;BME280;64592;52.168;21.040;2023-08-21T02:01:21;100723.72;;;23.48;83.51
75913;BME280;64592;52.168;21.040;2023-08-21T02:06:24;100714.38;;;23.49;83.74
75913;BME280;64592;52.168;21.040;2023-08-21T02:11:27;100711.84;;;23.48;83.75
75913;BME280;64592;52.168;21.040;2023-08-21T02:16:28;100706.13;;;23.49;83.69
75913;BME280;64592;52.168;21.040;2023-08-21T02:21:30;100692.91;;;23.45;83.96
75913;BME280;64592;52.168;21.040;2023-08-21T02:26:33;100698.53;;;23.37;84.35
75913;BME280;64592;52.168;21.040;2023-08-21T02:31:34;100702.22;;;23.29;84.79
75913;BME280;64592;52.168;21.040;2023-08-21T02:36:36;100697.00;;;23.19;85.52
75913;BME280;64592;52.168;21.040;2023-08-21T02:41:39;100696.34;;;23.17;85.71
75913;BME280;64592;52.168;21.040;2023-08-21T02:46:41;100700.22;;;23.08;86.24
75913;BME280;64592;52.168;21.040;2023-08-21T02:51:42;100701.44;;;23.06;86.43
75913;BME280;64592;52.168;21.040;2023-08-21T02:56:45;100698.22;;;23.02;86.83
75913;BME280;64592;52.168;21.040;2023-08-21T03:01:48;100701.34;;;22.99;87.18
75913;BME280;64592;52.168;21.040;2023-08-21T03:06:50;100697.91;;;22.97;87.47
75913;BME280;64592;52.168;21.040;2023-08-21T03:11:53;100695.75;;;22.93;87.37
75913;BME280;64592;52.168;21.040;2023-08-21T03:16:54;100694.44;;;22.89;87.57
75913;BME280;64592;52.168;21.040;2023-08-21T03:21:56;100695.16;;;22.82;87.76
75913;BME280;64592;52.168;21.040;2023-08-21T03:26:59;100696.84;;;22.83;88.06
75913;BME280;64592;52.168;21.040;2023-08-21T03:32:01;100699.69;;;22.75;88.41
75913;BME280;64592;52.168;21.040;2023-08-21T03:37:02;100705.41;;;22.74;88.99
75913;BME280;64592;52.168;21.040;2023-08-21T03:42:06;100711.53;;;22.76;88.81
75913;BME280;64592;52.168;21.040;2023-08-21T03:47:07;100706.94;;;22.68;89.02
75913;BME280;64592;52.168;21.040;2023-08-21T03:52:09;100700.41;;;22.69;88.72
75913;BME280;64592;52.168;21.040;2023-08-21T03:57:12;100703.91;;;22.63;89.32
75913;BME280;64592;52.168;21.040;2023-08-21T04:02:14;100703.22;;;22.61;89.42
75913;BME280;64592;52.168;21.040;2023-08-21T04:07:15;100709.16;;;22.50;90.13
75913;BME280;64592;52.168;21.040;2023-08-21T04:12:18;100711.19;;;22.56;90.22
75913;BME280;64592;52.168;21.040;2023-08-21T04:17:21;100704.47;;;22.59;90.14
75913;BME280;64592;52.168;21.040;2023-08-21T04:22:23;100700.69;;;22.60;90.10
75913;BME280;64592;52.168;21.040;2023-08-21T04:27:26;100704.94;;;22.62;89.89
75913;BME280;64592;52.168;21.040;2023-08-21T04:32:28;100706.66;;;22.63;90.17
75913;BME280;64592;52.168;21.040;2023-08-21T04:37:30;100721.94;;;22.66;90.16
75913;BME280;64592;52.168;21.040;2023-08-21T04:42:33;100715.94;;;22.62;90.57
75913;BME280;64592;52.168;21.040;2023-08-21T04:47:35;100726.00;;;22.70;90.38
75913;BME280;64592;52.168;21.040;2023-08-21T04:52:37;100727.72;;;22.71;90.54
75913;BME280;64592;52.168;21.040;2023-08-21T04:57:40;100710.69;;;22.75;90.49
75913;BME280;64592;52.168;21.040;2023-08-21T05:02:42;100710.44;;;22.85;90.31
75913;BME280;64592;52.168;21.040;2023-08-21T05:07:43;100724.97;;;22.94;90.26
75913;BME280;64592;52.168;21.040;2023-08-21T05:12:46;100726.78;;;23.01;90.20
75913;BME280;64592;52.168;21.040;2023-08-21T05:17:48;100722.91;;;23.10;89.99
75913;BME280;64592;52.168;21.040;2023-08-21T05:22:50;100724.50;;;23.19;89.56
75913;BME280;64592;52.168;21.040;2023-08-21T05:27:53;100732.03;;;23.26;89.06
75913;BME280;64592;52.168;21.040;2023-08-21T05:32:54;100727.28;;;23.34;88.68
75913;BME280;64592;52.168;21.040;2023-08-21T05:37:56;100731.38;;;23.38;88.51
75913;BME280;64592;52.168;21.040;2023-08-21T05:42:59;100734.22;;;23.45;88.77
75913;BME280;64592;52.168;21.040;2023-08-21T05:48:00;100741.09;;;23.49;88.21
75913;BME280;64592;52.168;21.040;2023-08-21T05:53:03;100755.97;;;23.54;87.48
75913;BME280;64592;52.168;21.040;2023-08-21T05:58:06;100749.72;;;23.60;87.82
75913;BME280;64592;52.168;21.040;2023-08-21T06:03:07;100752.91;;;23.64;87.71
75913;BME280;64592;52.168;21.040;2023-08-21T06:08:09;100754.19;;;23.62;87.09
75913;BME280;64592;52.168;21.040;2023-08-21T06:13:12;100757.38;;;23.65;86.94
75913;BME280;64592;52.168;21.040;2023-08-21T06:18:14;100778.56;;;23.65;87.19
75913;BME280;64592;52.168;21.040;2023-08-21T06:23:16;100769.75;;;23.69;87.07
75913;BME280;64592;52.168;21.040;2023-08-21T06:28:19;100774.41;;;23.69;86.67
75913;BME280;64592;52.168;21.040;2023-08-21T06:33:20;100782.16;;;23.65;86.34
75913;BME280;64592;52.168;21.040;2023-08-21T06:38:22;100791.47;;;23.64;86.75
75913;BME280;64592;52.168;21.040;2023-08-21T06:43:25;100802.38;;;23.57;87.03
75913;BME280;64592;52.168;21.040;2023-08-21T06:48:27;100807.03;;;23.57;87.17
75913;BME280;64592;52.168;21.040;2023-08-21T06:53:28;100811.50;;;23.58;87.64
75913;BME280;64592;52.168;21.040;2023-08-21T06:58:31;100829.38;;;23.62;88.19
75913;BME280;64592;52.168;21.040;2023-08-21T07:03:33;100843.91;;;23.56;87.88
75913;BME280;64592;52.168;21.040;2023-08-21T07:08:35;100850.38;;;23.40;88.87
75913;BME280;64592;52.168;21.040;2023-08-21T07:13:39;100853.56;;;23.29;89.85
75913;BME280;64592;52.168;21.040;2023-08-21T07:18:41;100857.63;;;23.18;90.33
75913;BME280;64592;52.168;21.040;2023-08-21T07:23:42;100883.56;;;23.01;90.86
75913;BME280;64592;52.168;21.040;2023-08-21T07:28:45;100883.25;;;22.96;91.67
75913;BME280;64592;52.168;21.040;2023-08-21T07:33:47;100884.47;;;22.94;92.08
75913;BME280;64592;52.168;21.040;2023-08-21T07:38:49;100874.50;;;22.93;93.01
75913;BME280;64592;52.168;21.040;2023-08-21T07:43:52;100877.13;;;22.86;93.00
75913;BME280;64592;52.168;21.040;2023-08-21T07:48:54;100866.31;;;22.84;93.03
75913;BME280;64592;52.168;21.040;2023-08-21T07:53:55;100864.97;;;22.80;93.50
75913;BME280;64592;52.168;21.040;2023-08-21T07:58:58;100862.34;;;22.87;93.82
75913;BME280;64592;52.168;21.040;2023-08-21T08:04:00;100849.56;;;22.94;93.65
75913;BME280;64592;52.168;21.040;2023-08-21T08:09:02;100856.34;;;23.06;93.08
75913;BME280;64592;52.168;21.040;2023-08-21T08:14:06;100854.88;;;23.18;92.21
75913;BME280;64592;52.168;21.040;2023-08-21T08:19:07;100859.47;;;23.26;91.42
75913;BME280;64592;52.168;21.040;2023-08-21T08:24:09;100846.38;;;23.43;91.40
75913;BME280;64592;52.168;21.040;2023-08-21T08:29:12;100838.50;;;23.63;89.57
75913;BME280;64592;52.168;21.040;2023-08-21T08:34:14;100827.09;;;23.80;87.71
75913;BME280;64592;52.168;21.040;2023-08-21T08:39:18;100833.63;;;23.94;86.29
75913;BME280;64592;52.168;21.040;2023-08-21T08:44:24;100830.59;;;24.04;85.98
75913;BME280;64592;52.168;21.040;2023-08-21T08:49:26;100830.50;;;24.12;85.23
75913;BME280;64592;52.168;21.040;2023-08-21T08:54:29;100834.78;;;24.14;84.62
75913;BME280;64592;52.168;21.040;2023-08-21T08:59:32;100822.59;;;24.23;84.67
75913;BME280;64592;52.168;21.040;2023-08-21T09:04:34;100803.69;;;24.35;84.50
75913;BME280;64592;52.168;21.040;2023-08-21T09:09:39;100800.41;;;24.46;83.89
75913;BME280;64592;52.168;21.040;2023-08-21T09:14:43;100780.59;;;24.57;83.18
75913;BME280;64592;52.168;21.040;2023-08-21T09:19:44;100795.56;;;24.69;81.35
75913;BME280;64592;52.168;21.040;2023-08-21T09:25:02;100801.19;;;24.83;78.87
75913;BME280;64592;52.168;21.040;2023-08-21T09:30:10;100798.16;;;24.92;77.39
75913;BME280;64592;52.168;21.040;2023-08-21T09:35:14;100797.63;;;25.03;74.25
75913;BME280;64592;52.168;21.040;2023-08-21T09:40:17;100784.59;;;25.19;71.34
75913;BME280;64592;52.168;21.040;2023-08-21T09:45:21;100786.41;;;25.33;70.05
75913;BME280;64592;52.168;21.040;2023-08-21T09:50:24;100787.34;;;25.46;70.76
75913;BME280;64592;52.168;21.040;2023-08-21T09:55:26;100789.59;;;25.64;68.54
75913;BME280;64592;52.168;21.040;2023-08-21T10:00:32;100781.84;;;25.81;64.07
75913;BME280;64592;52.168;21.040;2023-08-21T10:05:36;100786.19;;;25.97;59.00
75913;BME280;64592;52.168;21.040;2023-08-21T10:10:38;100780.13;;;26.21;60.15
75913;BME280;64592;52.168;21.040;2023-08-21T10:15:42;100783.41;;;26.38;58.00
75913;BME280;64592;52.168;21.040;2023-08-21T10:20:45;100788.78;;;26.59;57.80
75913;BME280;64592;52.168;21.040;2023-08-21T10:25:47;100777.09;;;26.77;57.36
75913;BME280;64592;52.168;21.040;2023-08-21T10:30:50;100780.53;;;26.98;57.64
75913;BME280;64592;52.168;21.040;2023-08-21T10:35:52;100776.06;;;27.24;55.48
75913;BME280;64592;52.168;21.040;2023-08-21T10:41:04;100781.56;;;27.50;50.90
75913;BME280;64592;52.168;21.040;2023-08-21T10:46:07;100781.13;;;27.73;49.69
75913;BME280;64592;52.168;21.040;2023-08-21T10:51:10;100793.44;;;27.97;49.45
75913;BME280;64592;52.168;21.040;2023-08-21T10:56:13;100780.56;;;28.22;47.85
75913;BME280;64592;52.168;21.040;2023-08-21T11:01:16;100782.16;;;28.43;46.36
75913;BME280;64592;52.168;21.040;2023-08-21T11:06:18;100788.91;;;28.60;41.45
75913;BME280;64592;52.168;21.040;2023-08-21T11:11:21;100793.28;;;28.74;40.63
75913;BME280;64592;52.168;21.040;2023-08-21T11:16:24;100789.97;;;28.97;41.98
75913;BME280;64592;52.168;21.040;2023-08-21T11:21:26;100783.38;;;29.16;41.61
75913;BME280;64592;52.168;21.040;2023-08-21T11:26:28;100784.72;;;29.32;42.48
75913;BME280;64592;52.168;21.040;2023-08-21T11:31:31;100784.72;;;29.57;40.80
75913;BME280;64592;52.168;21.040;2023-08-21T11:36:33;100771.28;;;29.72;41.13
75913;BME280;64592;52.168;21.040;2023-08-21T11:41:52;100776.88;;;29.90;37.50
75913;BME280;64592;52.168;21.040;2023-08-21T11:46:55;100783.06;;;30.10;36.23
75913;BME280;64592;52.168;21.040;2023-08-21T11:51:57;100774.91;;;30.16;37.01
75913;BME280;64592;52.168;21.040;2023-08-21T11:56:59;100766.81;;;30.26;34.93
75913;BME280;64592;52.168;21.040;2023-08-21T12:02:09;100771.56;;;30.55;35.72
75913;BME280;64592;52.168;21.040;2023-08-21T12:07:12;100768.00;;;30.66;31.35
75913;BME280;64592;52.168;21.040;2023-08-21T12:12:13;100780.41;;;30.94;33.63
75913;BME280;64592;52.168;21.040;2023-08-21T12:17:16;100768.09;;;31.13;31.11
75913;BME280;64592;52.168;21.040;2023-08-21T12:22:18;100774.56;;;31.25;31.52
75913;BME280;64592;52.168;21.040;2023-08-21T12:27:20;100769.00;;;31.48;31.86
75913;BME280;64592;52.168;21.040;2023-08-21T12:32:23;100777.47;;;31.77;30.93
75913;BME280;64592;52.168;21.040;2023-08-21T12:37:25;100769.56;;;31.97;30.83
75913;BME280;64592;52.168;21.040;2023-08-21T12:42:27;100767.66;;;31.86;30.51
75913;BME280;64592;52.168;21.040;2023-08-21T12:47:30;100762.94;;;31.86;31.19
75913;BME280;64592;52.168;21.040;2023-08-21T12:52:32;100765.53;;;32.05;31.42
75913;BME280;64592;52.168;21.040;2023-08-21T12:57:33;100760.38;;;32.36;30.06
75913;BME280;64592;52.168;21.040;2023-08-21T13:02:36;100747.97;;;32.61;30.23
75913;BME280;64592;52.168;21.040;2023-08-21T13:07:38;100754.06;;;32.58;30.74
75913;BME280;64592;52.168;21.040;2023-08-21T13:12:40;100744.19;;;32.38;30.01
75913;BME280;64592;52.168;21.040;2023-08-21T13:17:43;100738.28;;;32.35;30.54
75913;BME280;64592;52.168;21.040;2023-08-21T13:22:46;100745.63;;;32.13;30.53
75913;BME280;64592;52.168;21.040;2023-08-21T13:27:49;100740.00;;;32.24;31.01
75913;BME280;64592;52.168;21.040;2023-08-21T13:32:52;100728.56;;;32.37;29.12
75913;BME280;64592;52.168;21.040;2023-08-21T13:37:54;100740.34;;;32.56;29.47
75913;BME280;64592;52.168;21.040;2023-08-21T13:42:56;100736.19;;;32.87;28.31
75913;BME280;64592;52.168;21.040;2023-08-21T13:47:59;100734.16;;;32.99;28.97
75913;BME280;64592;52.168;21.040;2023-08-21T13:53:01;100731.38;;;33.16;27.98
75913;BME280;64592;52.168;21.040;2023-08-21T13:58:03;100729.91;;;33.47;28.97
75913;BME280;64592;52.168;21.040;2023-08-21T14:03:06;100738.69;;;33.72;27.20
75913;BME280;64592;52.168;21.040;2023-08-21T14:08:08;100741.78;;;33.93;27.39
75913;BME280;64592;52.168;21.040;2023-08-21T14:13:09;100732.56;;;34.19;26.35
75913;BME280;64592;52.168;21.040;2023-08-21T14:18:13;100729.06;;;34.55;27.79
75913;BME280;64592;52.168;21.040;2023-08-21T14:23:15;100732.09;;;34.76;27.16
75913;BME280;64592;52.168;21.040;2023-08-21T14:28:16;100729.41;;;34.86;26.45
75913;BME280;64592;52.168;21.040;2023-08-21T14:33:19;100732.53;;;34.89;26.40
75913;BME280;64592;52.168;21.040;2023-08-21T14:38:21;100730.28;;;34.64;26.15
75913;BME280;64592;52.168;21.040;2023-08-21T14:43:23;100721.91;;;34.38;25.42
75913;BME280;64592;52.168;21.040;2023-08-21T14:48:26;100727.38;;;34.54;25.28
75913;BME280;64592;52.168;21.040;2023-08-21T14:53:27;100731.88;;;34.55;25.55
75913;BME280;64592;52.168;21.040;2023-08-21T14:58:29;100728.38;;;34.70;25.65
75913;BME280;64592;52.168;21.040;2023-08-21T15:03:32;100725.75;;;34.85;25.84
75913;BME280;64592;52.168;21.040;2023-08-21T15:08:34;100731.25;;;34.48;25.64
75913;BME280;64592;52.168;21.040;2023-08-21T15:13:36;100722.88;;;34.53;26.77
75913;BME280;64592;52.168;21.040;2023-08-21T15:18:39;100719.38;;;34.36;26.83
75913;BME280;64592;52.168;21.040;2023-08-21T15:23:41;100719.94;;;33.73;27.30
75913;BME280;64592;52.168;21.040;2023-08-21T15:28:43;100714.59;;;33.33;28.14
75913;BME280;64592;52.168;21.040;2023-08-21T15:33:46;100707.91;;;33.00;27.91
75913;BME280;64592;52.168;21.040;2023-08-21T15:38:48;100717.00;;;32.46;29.31
75913;BME280;64592;52.168;21.040;2023-08-21T15:43:49;100716.84;;;31.84;30.85
75913;BME280;64592;52.168;21.040;2023-08-21T15:48:53;100718.31;;;31.40;32.61
75913;BME280;64592;52.168;21.040;2023-08-21T15:53:55;100716.00;;;31.02;32.42
75913;BME280;64592;52.168;21.040;2023-08-21T15:58:57;100716.91;;;30.72;32.53
75913;BME280;64592;52.168;21.040;2023-08-21T16:04:00;100716.19;;;30.35;33.24
75913;BME280;64592;52.168;21.040;2023-08-21T16:09:01;100717.03;;;30.06;33.72
75913;BME280;64592;52.168;21.040;2023-08-21T16:14:04;100720.72;;;29.82;34.73
75913;BME280;64592;52.168;21.040;2023-08-21T16:19:09;100711.47;;;29.69;34.14
75913;BME280;64592;52.168;21.040;2023-08-21T16:24:11;100716.34;;;29.56;35.00
75913;BME280;64592;52.168;21.040;2023-08-21T16:29:12;100703.50;;;29.37;36.05
75913;BME280;64592;52.168;21.040;2023-08-21T16:34:18;100707.94;;;29.19;36.08
75913;BME280;64592;52.168;21.040;2023-08-21T16:39:21;100714.22;;;29.08;36.12
75913;BME280;64592;52.168;21.040;2023-08-21T16:44:23;100703.03;;;28.97;36.60
75913;BME280;64592;52.168;21.040;2023-08-21T16:49:26;100706.16;;;28.82;37.13
75913;BME280;64592;52.168;21.040;2023-08-21T16:54:28;100712.00;;;28.67;37.44
75913;BME280;64592;52.168;21.040;2023-08-21T16:59:30;100702.63;;;28.62;37.55
75913;BME280;64592;52.168;21.040;2023-08-21T17:04:33;100697.13;;;28.55;37.33
75913;BME280;64592;52.168;21.040;2023-08-21T17:09:35;100697.19;;;28.48;39.05
75913;BME280;64592;52.168;21.040;2023-08-21T17:14:37;100700.03;;;28.35;39.13
75913;BME280;64592;52.168;21.040;2023-08-21T17:19:41;100697.16;;;28.17;38.55
75913;BME280;64592;52.168;21.040;2023-08-21T17:24:42;100697.84;;;28.06;39.22
75913;BME280;64592;52.168;21.040;2023-08-21T17:29:44;100704.28;;;28.00;39.36
75913;BME280;64592;52.168;21.040;2023-08-21T17:34:48;100702.19;;;27.89;39.19
75913;BME280;64592;52.168;21.040;2023-08-21T17:39:50;100693.06;;;27.81;39.62
75913;BME280;64592;52.168;21.040;2023-08-21T17:44:51;100696.75;;;27.69;39.99
75913;BME280;64592;52.168;21.040;2023-08-21T17:49:54;100706.16;;;27.61;42.12
75913;BME280;64592;52.168;21.040;2023-08-21T17:54:56;100699.56;;;27.49;42.93
75913;BME280;64592;52.168;21.040;2023-08-21T17:59:58;100706.59;;;27.38;43.37
75913;BME280;64592;52.168;21.040;2023-08-21T18:05:04;100719.63;;;27.25;44.24
75913;BME280;64592;52.168;21.040;2023-08-21T18:10:07;100726.47;;;27.09;45.03
75913;BME280;64592;52.168;21.040;2023-08-21T18:15:09;100717.28;;;26.89;45.03
75913;BME280;64592;52.168;21.040;2023-08-21T18:20:13;100726.88;;;26.73;45.74
75913;BME280;64592;52.168;21.040;2023-08-21T18:25:14;100721.53;;;26.58;45.43
75913;BME280;64592;52.168;21.040;2023-08-21T18:30:18;100725.34;;;26.44;46.22
75913;BME280;64592;52.168;21.040;2023-08-21T18:35:21;100728.72;;;26.33;47.31
75913;BME280;64592;52.168;21.040;2023-08-21T18:40:23;100719.72;;;26.24;47.34
75913;BME280;64592;52.168;21.040;2023-08-21T18:45:25;100729.91;;;26.17;48.21
75913;BME280;64592;52.168;21.040;2023-08-21T18:50:36;100734.75;;;26.02;47.63
75913;BME280;64592;52.168;21.040;2023-08-21T18:55:38;100729.19;;;25.89;48.44
75913;BME280;64592;52.168;21.040;2023-08-21T19:00:40;100723.16;;;25.79;49.06
75913;BME280;64592;52.168;21.040;2023-08-21T19:05:43;100727.19;;;25.70;49.02
75913;BME280;64592;52.168;21.040;2023-08-21T19:10:45;100724.13;;;25.58;50.22
75913;BME280;64592;52.168;21.040;2023-08-21T19:15:47;100726.59;;;25.46;50.71
75913;BME280;64592;52.168;21.040;2023-08-21T19:20:50;100727.16;;;25.35;51.69
75913;BME280;64592;52.168;21.040;2023-08-21T19:25:52;100730.91;;;25.28;52.80
75913;BME280;64592;52.168;21.040;2023-08-21T19:30:54;100733.00;;;25.19;53.29
75913;BME280;64592;52.168;21.040;2023-08-21T19:35:57;100731.44;;;25.10;52.83
75913;BME280;64592;52.168;21.040;2023-08-21T19:40:58;100727.13;;;25.01;53.29
75913;BME280;64592;52.168;21.040;2023-08-21T19:46:00;100736.22;;;24.95;53.43
75913;BME280;64592;52.168;21.040;2023-08-21T19:51:03;100734.69;;;24.92;54.20
75913;BME280;64592;52.168;21.040;2023-08-21T19:56:05;100740.78;;;24.88;53.92
75913;BME280;64592;52.168;21.040;2023-08-21T20:01:06;100736.66;;;24.77;54.95
75913;BME280;64592;52.168;21.040;2023-08-21T20:06:10;100738.38;;;24.78;54.13
75913;BME280;64592;52.168;21.040;2023-08-21T20:11:13;100742.63;;;24.81;53.21
75913;BME280;64592;52.168;21.040;2023-08-21T20:16:15;100740.47;;;24.76;54.64
75913;BME280;64592;52.168;21.040;2023-08-21T20:21:18;100741.31;;;24.76;52.53
75913;BME280;64592;52.168;21.040;2023-08-21T20:26:21;100739.88;;;24.81;52.09
75913;BME280;64592;52.168;21.040;2023-08-21T20:31:24;100732.25;;;24.83;53.35
75913;BME280;64592;52.168;21.040;2023-08-21T20:36:28;100728.19;;;24.79;52.60
75913;BME280;64592;52.168;21.040;2023-08-21T20:41:30;100729.00;;;24.72;52.54
75913;BME280;64592;52.168;21.040;2023-08-21T20:46:32;100729.00;;;24.72;52.66
75913;BME280;64592;52.168;21.040;2023-08-21T20:51:35;100738.31;;;24.71;53.00
75913;BME280;64592;52.168;21.040;2023-08-21T20:56:37;100734.56;;;24.58;53.35
75913;BME280;64592;52.168;21.040;2023-08-21T21:01:38;100731.88;;;24.43;54.63
75913;BME280;64592;52.168;21.040;2023-08-21T21:06:41;100730.97;;;24.36;55.99
75913;BME280;64592;52.168;21.040;2023-08-21T21:11:43;100739.72;;;24.25;56.69
75913;BME280;64592;52.168;21.040;2023-08-21T21:16:45;100731.66;;;24.09;57.90
75913;BME280;64592;52.168;21.040;2023-08-21T21:21:48;100734.28;;;23.95;59.05
75913;BME280;64592;52.168;21.040;2023-08-21T21:26:50;100739.03;;;23.87;59.60
75913;BME280;64592;52.168;21.040;2023-08-21T21:31:53;100741.78;;;23.87;59.91
75913;BME280;64592;52.168;21.040;2023-08-21T21:36:56;100743.16;;;23.76;60.39
75913;BME280;64592;52.168;21.040;2023-08-21T21:41:58;100745.91;;;23.62;61.11
75913;BME280;64592;52.168;21.040;2023-08-21T21:47:00;100742.84;;;23.56;61.63
75913;BME280;64592;52.168;21.040;2023-08-21T21:52:03;100735.44;;;23.42;62.41
75913;BME280;64592;52.168;21.040;2023-08-21T21:57:05;100745.50;;;23.35;62.73
75913;BME280;64592;52.168;21.040;2023-08-21T22:02:06;100740.75;;;23.29;63.14
75913;BME280;64592;52.168;21.040;2023-08-21T22:07:09;100739.88;;;23.29;63.48
75913;BME280;64592;52.168;21.040;2023-08-21T22:12:11;100739.78;;;23.22;63.71
75913;BME280;64592;52.168;21.040;2023-08-21T22:17:13;100756.03;;;23.17;63.79
75913;BME280;64592;52.168;21.040;2023-08-21T22:22:16;100741.50;;;23.08;64.19
75913;BME280;64592;52.168;21.040;2023-08-21T22:27:18;100741.28;;;22.95;64.56
75913;BME280;64592;52.168;21.040;2023-08-21T22:32:19;100740.97;;;22.90;64.99
75913;BME280;64592;52.168;21.040;2023-08-21T22:37:23;100743.66;;;22.75;65.41
75913;BME280;64592;52.168;21.040;2023-08-21T22:42:25;100745.63;;;22.67;66.17
75913;BME280;64592;52.168;21.040;2023-08-21T22:47:26;100740.50;;;22.64;66.36
75913;BME280;64592;52.168;21.040;2023-08-21T22:52:29;100752.22;;;22.58;66.68
75913;BME280;64592;52.168;21.040;2023-08-21T22:57:31;100743.53;;;22.46;67.46
75913;BME280;64592;52.168;21.040;2023-08-21T23:02:33;100756.13;;;22.40;67.09
75913;BME280;64592;52.168;21.040;2023-08-21T23:07:36;100761.63;;;22.40;67.35
75913;BME280;64592;52.168;21.040;2023-08-21T23:12:37;100756.13;;;22.40;66.80
75913;BME280;64592;52.168;21.040;2023-08-21T23:17:39;100751.00;;;22.37;66.52
75913;BME280;64592;52.168;21.040;2023-08-21T23:22:42;100751.38;;;22.34;66.46
75913;BME280;64592;52.168;21.040;2023-08-21T23:27:44;100744.16;;;22.33;66.49
75913;BME280;64592;52.168;21.040;2023-08-21T23:32:45;100749.66;;;22.33;66.32
75913;BME280;64592;52.168;21.040;2023-08-21T23:37:48;100749.28;;;22.36;66.04
75913;BME280;64592;52.168;21.040;2023-08-21T23:42:50;100748.09;;;22.31;66.35
75913;BME280;64592;52.168;21.040;2023-08-21T23:47:52;100751.38;;;22.34;66.65
75913;BME280;64592;52.168;21.040;2023-08-21T23:52:55;100744.16;;;22.33;66.24
75913;BME280;64592;52.168;21.040;2023-08-21T23:57:57;100754.78;;;22.36;66.27
